sensor_id;sensor_type;location;lat;lon;timestamp;temperature;humidity
37530;DHT22;23374;52.758;6.872;2022-12-18T00:00:30;-2.80;93.20
37530;DHT22;23374;52.758;6.872;2022-12-18T00:02:50;-2.80;99.90
37530;DHT22;23374;52.758;6.872;2022-12-18T00:05:13;-2.80;92.00
37530;DHT22;23374;52.758;6.872;2022-12-18T00:07:33;-2.90;96.20
37530;DHT22;23374;52.758;6.872;2022-12-18T00:09:55;-2.90;86.30
37530;DHT22;23374;52.758;6.872;2022-12-18T00:12:16;-3.00;96.10
37530;DHT22;23374;52.758;6.872;2022-12-18T00:14:37;-3.00;90.10
37530;DHT22;23374;52.758;6.872;2022-12-18T00:16:58;-3.00;97.30
37530;DHT22;23374;52.758;6.872;2022-12-18T00:19:21;-3.10;92.60
37530;DHT22;23374;52.758;6.872;2022-12-18T00:21:42;-3.10;98.00
37530;DHT22;23374;52.758;6.872;2022-12-18T00:24:03;-3.10;99.90
37530;DHT22;23374;52.758;6.872;2022-12-18T00:26:30;-3.10;99.90
37530;DHT22;23374;52.758;6.872;2022-12-18T00:28:52;-3.10;99.90
37530;DHT22;23374;52.758;6.872;2022-12-18T00:31:21;-3.10;99.90
37530;DHT22;23374;52.758;6.872;2022-12-18T00:33:41;-3.00;99.90
37530;DHT22;23374;52.758;6.872;2022-12-18T00:36:15;-3.00;99.90
37530;DHT22;23374;52.758;6.872;2022-12-18T00:38:38;-3.00;99.90
37530;DHT22;23374;52.758;6.872;2022-12-18T00:40:58;-2.90;99.90
37530;DHT22;23374;52.758;6.872;2022-12-18T00:43:19;-2.80;99.90
37530;DHT22;23374;52.758;6.872;2022-12-18T00:45:39;-2.80;99.90
37530;DHT22;23374;52.758;6.872;2022-12-18T00:48:01;-2.80;99.90
37530;DHT22;23374;52.758;6.872;2022-12-18T00:50:23;-2.80;96.50
37530;DHT22;23374;52.758;6.872;2022-12-18T00:52:44;-2.80;95.30
37530;DHT22;23374;52.758;6.872;2022-12-18T00:55:05;-2.80;91.60
37530;DHT22;23374;52.758;6.872;2022-12-18T00:57:26;-2.80;60.20
37530;DHT22;23374;52.758;6.872;2022-12-18T00:59:47;-2.80;61.20
37530;DHT22;23374;52.758;6.872;2022-12-18T01:02:08;-2.80;52.20
37530;DHT22;23374;52.758;6.872;2022-12-18T01:04:32;-2.90;29.70
37530;DHT22;23374;52.758;6.872;2022-12-18T01:06:52;-2.90;22.20
37530;DHT22;23374;52.758;6.872;2022-12-18T01:09:13;-3.00;20.70
37530;DHT22;23374;52.758;6.872;2022-12-18T01:11:33;-3.00;18.00
37530;DHT22;23374;52.758;6.872;2022-12-18T01:13:54;-3.00;6.90
37530;DHT22;23374;52.758;6.872;2022-12-18T01:16:16;-3.10;1.00
37530;DHT22;23374;52.758;6.872;2022-12-18T01:18:37;-3.20;1.00
37530;DHT22;23374;52.758;6.872;2022-12-18T01:20:57;-3.20;1.00
37530;DHT22;23374;52.758;6.872;2022-12-18T01:23:17;-3.20;1.00
37530;DHT22;23374;52.758;6.872;2022-12-18T01:25:38;-3.20;1.00
37530;DHT22;23374;52.758;6.872;2022-12-18T01:27:58;-3.20;1.00
37530;DHT22;23374;52.758;6.872;2022-12-18T01:30:19;-3.20;1.00
37530;DHT22;23374;52.758;6.872;2022-12-18T01:32:39;-3.30;1.00
37530;DHT22;23374;52.758;6.872;2022-12-18T01:34:59;-3.30;1.00
37530;DHT22;23374;52.758;6.872;2022-12-18T01:37:19;-3.30;1.00
37530;DHT22;23374;52.758;6.872;2022-12-18T01:39:40;-3.30;1.00
37530;DHT22;23374;52.758;6.872;2022-12-18T01:42:03;-3.30;1.00
37530;DHT22;23374;52.758;6.872;2022-12-18T01:49:14;-3.40;1.00
37530;DHT22;23374;52.758;6.872;2022-12-18T01:51:34;-3.50;1.00
37530;DHT22;23374;52.758;6.872;2022-12-18T01:53:54;-3.50;1.00
37530;DHT22;23374;52.758;6.872;2022-12-18T01:56:20;-3.60;1.00
37530;DHT22;23374;52.758;6.872;2022-12-18T01:59:03;-3.60;1.00
37530;DHT22;23374;52.758;6.872;2022-12-18T02:01:25;-3.60;1.00
37530;DHT22;23374;52.758;6.872;2022-12-18T02:03:46;-3.60;1.00
37530;DHT22;23374;52.758;6.872;2022-12-18T02:06:55;-3.60;1.00
37530;DHT22;23374;52.758;6.872;2022-12-18T02:09:33;-3.50;1.00
37530;DHT22;23374;52.758;6.872;2022-12-18T02:12:19;-3.60;1.00
37530;DHT22;23374;52.758;6.872;2022-12-18T02:15:19;-3.70;1.00
37530;DHT22;23374;52.758;6.872;2022-12-18T02:18:08;-3.70;1.00
37530;DHT22;23374;52.758;6.872;2022-12-18T02:20:37;-3.60;1.00
37530;DHT22;23374;52.758;6.872;2022-12-18T02:26:26;-3.70;1.00
37530;DHT22;23374;52.758;6.872;2022-12-18T02:29:01;-3.70;1.00
37530;DHT22;23374;52.758;6.872;2022-12-18T02:31:33;-3.60;1.00
37530;DHT22;23374;52.758;6.872;2022-12-18T02:34:00;-3.70;1.00
37530;DHT22;23374;52.758;6.872;2022-12-18T02:36:23;-3.70;1.00
37530;DHT22;23374;52.758;6.872;2022-12-18T02:38:44;-3.70;1.00
37530;DHT22;23374;52.758;6.872;2022-12-18T02:41:06;-3.80;1.00
37530;DHT22;23374;52.758;6.872;2022-12-18T02:43:26;-3.80;1.00
37530;DHT22;23374;52.758;6.872;2022-12-18T02:45:57;-3.80;1.00
37530;DHT22;23374;52.758;6.872;2022-12-18T02:48:24;-3.80;1.00
37530;DHT22;23374;52.758;6.872;2022-12-18T02:50:58;-3.80;1.00
37530;DHT22;23374;52.758;6.872;2022-12-18T02:56:51;-3.80;1.00
37530;DHT22;23374;52.758;6.872;2022-12-18T02:59:19;-3.80;1.00
37530;DHT22;23374;52.758;6.872;2022-12-18T03:02:01;-3.80;1.00
37530;DHT22;23374;52.758;6.872;2022-12-18T03:05:13;-3.80;1.00
37530;DHT22;23374;52.758;6.872;2022-12-18T03:07:45;-3.80;1.00
37530;DHT22;23374;52.758;6.872;2022-12-18T03:10:11;-3.90;1.00
37530;DHT22;23374;52.758;6.872;2022-12-18T03:12:38;-3.90;1.00
37530;DHT22;23374;52.758;6.872;2022-12-18T03:15:17;-3.90;1.00
37530;DHT22;23374;52.758;6.872;2022-12-18T03:17:46;-3.80;1.00
37530;DHT22;23374;52.758;6.872;2022-12-18T03:20:13;-3.80;1.00
37530;DHT22;23374;52.758;6.872;2022-12-18T03:22:35;-3.90;1.00
37530;DHT22;23374;52.758;6.872;2022-12-18T03:24:58;-3.90;1.00
37530;DHT22;23374;52.758;6.872;2022-12-18T03:27:21;-4.00;1.00
37530;DHT22;23374;52.758;6.872;2022-12-18T03:30:23;-4.00;1.00
37530;DHT22;23374;52.758;6.872;2022-12-18T03:36:48;-4.10;1.00
37530;DHT22;23374;52.758;6.872;2022-12-18T03:39:09;-4.10;1.00
37530;DHT22;23374;52.758;6.872;2022-12-18T03:41:43;-4.10;1.00
37530;DHT22;23374;52.758;6.872;2022-12-18T03:44:57;-4.10;1.00
37530;DHT22;23374;52.758;6.872;2022-12-18T03:47:35;-4.20;1.00
37530;DHT22;23374;52.758;6.872;2022-12-18T03:50:27;-4.10;1.00
37530;DHT22;23374;52.758;6.872;2022-12-18T03:56:42;-4.10;1.00
37530;DHT22;23374;52.758;6.872;2022-12-18T03:59:04;-4.20;1.00
37530;DHT22;23374;52.758;6.872;2022-12-18T04:01:35;-4.20;1.00
37530;DHT22;23374;52.758;6.872;2022-12-18T04:04:00;-4.20;1.00
37530;DHT22;23374;52.758;6.872;2022-12-18T04:06:21;-4.20;1.00
37530;DHT22;23374;52.758;6.872;2022-12-18T04:08:43;-4.20;1.00
37530;DHT22;23374;52.758;6.872;2022-12-18T04:11:03;-4.20;1.00
37530;DHT22;23374;52.758;6.872;2022-12-18T04:13:37;-4.20;1.00
37530;DHT22;23374;52.758;6.872;2022-12-18T04:15:58;-4.20;1.00
37530;DHT22;23374;52.758;6.872;2022-12-18T04:18:19;-4.30;1.00
37530;DHT22;23374;52.758;6.872;2022-12-18T04:20:40;-4.30;1.00
37530;DHT22;23374;52.758;6.872;2022-12-18T04:23:00;-4.30;1.00
37530;DHT22;23374;52.758;6.872;2022-12-18T04:25:20;-4.30;1.00
37530;DHT22;23374;52.758;6.872;2022-12-18T04:27:41;-4.30;1.00
37530;DHT22;23374;52.758;6.872;2022-12-18T04:30:01;-4.30;1.00
37530;DHT22;23374;52.758;6.872;2022-12-18T04:32:21;-4.40;1.00
37530;DHT22;23374;52.758;6.872;2022-12-18T04:34:41;-4.40;1.00
37530;DHT22;23374;52.758;6.872;2022-12-18T04:37:01;-4.30;1.00
37530;DHT22;23374;52.758;6.872;2022-12-18T04:39:21;-4.30;1.00
37530;DHT22;23374;52.758;6.872;2022-12-18T04:41:42;-4.30;1.00
37530;DHT22;23374;52.758;6.872;2022-12-18T04:44:02;-4.30;1.00
37530;DHT22;23374;52.758;6.872;2022-12-18T04:46:22;-4.30;1.00
37530;DHT22;23374;52.758;6.872;2022-12-18T04:48:46;-4.20;1.00
37530;DHT22;23374;52.758;6.872;2022-12-18T04:51:07;-4.20;1.00
37530;DHT22;23374;52.758;6.872;2022-12-18T04:53:27;-4.20;1.00
37530;DHT22;23374;52.758;6.872;2022-12-18T04:56:01;-4.20;1.00
37530;DHT22;23374;52.758;6.872;2022-12-18T04:58:21;-4.30;1.00
37530;DHT22;23374;52.758;6.872;2022-12-18T05:00:41;-4.30;1.00
37530;DHT22;23374;52.758;6.872;2022-12-18T05:03:03;-4.30;1.00
37530;DHT22;23374;52.758;6.872;2022-12-18T05:05:23;-4.40;99.90
37530;DHT22;23374;52.758;6.872;2022-12-18T05:07:44;-4.50;99.90
37530;DHT22;23374;52.758;6.872;2022-12-18T05:10:05;-4.50;99.90
37530;DHT22;23374;52.758;6.872;2022-12-18T05:12:25;-4.50;1.00
37530;DHT22;23374;52.758;6.872;2022-12-18T05:14:45;-4.60;99.90
37530;DHT22;23374;52.758;6.872;2022-12-18T05:17:06;-4.60;1.00
37530;DHT22;23374;52.758;6.872;2022-12-18T05:19:26;-4.60;99.90
37530;DHT22;23374;52.758;6.872;2022-12-18T05:21:46;-4.60;99.90
37530;DHT22;23374;52.758;6.872;2022-12-18T05:24:07;-4.70;99.90
37530;DHT22;23374;52.758;6.872;2022-12-18T05:26:27;-4.70;99.90
37530;DHT22;23374;52.758;6.872;2022-12-18T05:28:49;-4.80;99.90
37530;DHT22;23374;52.758;6.872;2022-12-18T05:31:09;-4.80;1.00
37530;DHT22;23374;52.758;6.872;2022-12-18T05:33:33;-4.80;1.00
37530;DHT22;23374;52.758;6.872;2022-12-18T05:35:57;-4.80;1.00
37530;DHT22;23374;52.758;6.872;2022-12-18T05:38:19;-4.80;99.90
37530;DHT22;23374;52.758;6.872;2022-12-18T05:40:42;-4.80;1.00
37530;DHT22;23374;52.758;6.872;2022-12-18T05:43:03;-4.90;99.90
37530;DHT22;23374;52.758;6.872;2022-12-18T05:45:24;-4.90;1.00
37530;DHT22;23374;52.758;6.872;2022-12-18T05:47:44;-4.90;1.00
37530;DHT22;23374;52.758;6.872;2022-12-18T05:50:05;-4.90;1.00
37530;DHT22;23374;52.758;6.872;2022-12-18T05:52:26;-4.90;1.00
37530;DHT22;23374;52.758;6.872;2022-12-18T05:54:48;-4.90;99.90
37530;DHT22;23374;52.758;6.872;2022-12-18T05:57:08;-5.00;99.90
37530;DHT22;23374;52.758;6.872;2022-12-18T05:59:29;-5.00;99.90
37530;DHT22;23374;52.758;6.872;2022-12-18T06:01:49;-5.00;99.90
37530;DHT22;23374;52.758;6.872;2022-12-18T06:04:09;-5.00;1.00
37530;DHT22;23374;52.758;6.872;2022-12-18T06:06:30;-4.90;1.00
37530;DHT22;23374;52.758;6.872;2022-12-18T06:08:51;-4.90;1.00
37530;DHT22;23374;52.758;6.872;2022-12-18T06:11:12;-4.80;1.00
37530;DHT22;23374;52.758;6.872;2022-12-18T06:13:33;-4.80;1.00
37530;DHT22;23374;52.758;6.872;2022-12-18T06:15:54;-4.80;1.00
37530;DHT22;23374;52.758;6.872;2022-12-18T06:18:14;-4.80;1.00
37530;DHT22;23374;52.758;6.872;2022-12-18T06:20:34;-4.70;99.90
37530;DHT22;23374;52.758;6.872;2022-12-18T06:22:57;-4.70;99.90
37530;DHT22;23374;52.758;6.872;2022-12-18T06:25:18;-4.80;99.90
37530;DHT22;23374;52.758;6.872;2022-12-18T06:27:38;-4.80;99.90
37530;DHT22;23374;52.758;6.872;2022-12-18T06:29:59;-4.80;99.90
37530;DHT22;23374;52.758;6.872;2022-12-18T06:32:19;-4.80;99.90
37530;DHT22;23374;52.758;6.872;2022-12-18T06:34:40;-4.90;99.90
37530;DHT22;23374;52.758;6.872;2022-12-18T06:37:00;-5.00;99.90
37530;DHT22;23374;52.758;6.872;2022-12-18T06:39:20;-5.00;99.90
37530;DHT22;23374;52.758;6.872;2022-12-18T06:41:41;-5.10;99.90
37530;DHT22;23374;52.758;6.872;2022-12-18T06:44:01;-5.10;99.90
37530;DHT22;23374;52.758;6.872;2022-12-18T06:46:22;-5.10;99.90
37530;DHT22;23374;52.758;6.872;2022-12-18T06:48:42;-5.10;99.90
37530;DHT22;23374;52.758;6.872;2022-12-18T06:51:03;-5.10;99.90
37530;DHT22;23374;52.758;6.872;2022-12-18T06:53:24;-5.10;99.90
37530;DHT22;23374;52.758;6.872;2022-12-18T06:55:44;-5.10;99.90
37530;DHT22;23374;52.758;6.872;2022-12-18T06:58:05;-5.20;99.90
37530;DHT22;23374;52.758;6.872;2022-12-18T07:00:25;-5.20;99.90
37530;DHT22;23374;52.758;6.872;2022-12-18T07:02:45;-5.20;99.90
37530;DHT22;23374;52.758;6.872;2022-12-18T07:05:06;-5.20;99.90
37530;DHT22;23374;52.758;6.872;2022-12-18T07:07:27;-5.20;99.90
37530;DHT22;23374;52.758;6.872;2022-12-18T07:09:48;-5.30;99.90
37530;DHT22;23374;52.758;6.872;2022-12-18T07:12:09;-5.30;99.90
37530;DHT22;23374;52.758;6.872;2022-12-18T07:14:29;-5.30;99.90
37530;DHT22;23374;52.758;6.872;2022-12-18T07:16:49;-5.30;99.90
37530;DHT22;23374;52.758;6.872;2022-12-18T07:19:10;-5.30;99.90
37530;DHT22;23374;52.758;6.872;2022-12-18T07:21:30;-5.30;99.90
37530;DHT22;23374;52.758;6.872;2022-12-18T07:23:51;-5.30;99.90
37530;DHT22;23374;52.758;6.872;2022-12-18T07:26:13;-5.30;99.90
37530;DHT22;23374;52.758;6.872;2022-12-18T07:28:35;-5.30;99.90
37530;DHT22;23374;52.758;6.872;2022-12-18T07:30:56;-5.40;99.90
37530;DHT22;23374;52.758;6.872;2022-12-18T07:33:17;-5.40;99.90
37530;DHT22;23374;52.758;6.872;2022-12-18T07:35:37;-5.40;99.90
37530;DHT22;23374;52.758;6.872;2022-12-18T07:37:57;-5.50;99.90
37530;DHT22;23374;52.758;6.872;2022-12-18T07:40:17;-5.50;99.90
37530;DHT22;23374;52.758;6.872;2022-12-18T07:42:38;-5.50;99.90
37530;DHT22;23374;52.758;6.872;2022-12-18T07:44:59;-5.50;99.90
37530;DHT22;23374;52.758;6.872;2022-12-18T07:47:20;-5.50;1.00
37530;DHT22;23374;52.758;6.872;2022-12-18T07:49:40;-5.50;1.00
37530;DHT22;23374;52.758;6.872;2022-12-18T07:52:01;-5.50;1.00
37530;DHT22;23374;52.758;6.872;2022-12-18T07:54:23;-5.40;1.00
37530;DHT22;23374;52.758;6.872;2022-12-18T07:56:43;-5.40;1.00
37530;DHT22;23374;52.758;6.872;2022-12-18T07:59:04;-5.40;1.00
37530;DHT22;23374;52.758;6.872;2022-12-18T08:01:25;-5.30;1.00
37530;DHT22;23374;52.758;6.872;2022-12-18T08:03:45;-5.30;1.00
37530;DHT22;23374;52.758;6.872;2022-12-18T08:06:08;-5.20;1.00
37530;DHT22;23374;52.758;6.872;2022-12-18T08:08:30;-5.20;1.00
37530;DHT22;23374;52.758;6.872;2022-12-18T08:10:50;-5.20;1.00
37530;DHT22;23374;52.758;6.872;2022-12-18T08:13:10;-5.10;1.00
37530;DHT22;23374;52.758;6.872;2022-12-18T08:15:30;-5.00;1.00
37530;DHT22;23374;52.758;6.872;2022-12-18T08:17:51;-5.00;1.00
37530;DHT22;23374;52.758;6.872;2022-12-18T08:20:11;-5.00;1.00
37530;DHT22;23374;52.758;6.872;2022-12-18T08:22:35;-5.00;1.00
37530;DHT22;23374;52.758;6.872;2022-12-18T08:24:55;-4.90;1.00
37530;DHT22;23374;52.758;6.872;2022-12-18T08:27:16;-4.90;1.00
37530;DHT22;23374;52.758;6.872;2022-12-18T08:29:37;-4.80;1.00
37530;DHT22;23374;52.758;6.872;2022-12-18T08:31:58;-4.80;1.00
37530;DHT22;23374;52.758;6.872;2022-12-18T08:34:18;-4.70;1.00
37530;DHT22;23374;52.758;6.872;2022-12-18T08:36:39;-4.60;1.00
37530;DHT22;23374;52.758;6.872;2022-12-18T08:38:59;-4.50;1.00
37530;DHT22;23374;52.758;6.872;2022-12-18T08:41:20;-4.50;1.00
37530;DHT22;23374;52.758;6.872;2022-12-18T08:43:41;-4.40;1.00
37530;DHT22;23374;52.758;6.872;2022-12-18T08:46:23;-4.40;1.00
37530;DHT22;23374;52.758;6.872;2022-12-18T08:48:44;-4.40;1.00
37530;DHT22;23374;52.758;6.872;2022-12-18T08:51:04;-4.40;1.00
37530;DHT22;23374;52.758;6.872;2022-12-18T08:53:26;-4.30;1.00
37530;DHT22;23374;52.758;6.872;2022-12-18T08:55:46;-4.30;1.00
37530;DHT22;23374;52.758;6.872;2022-12-18T08:58:07;-4.30;1.00
37530;DHT22;23374;52.758;6.872;2022-12-18T09:00:27;-4.20;1.00
37530;DHT22;23374;52.758;6.872;2022-12-18T09:02:48;-4.10;1.00
37530;DHT22;23374;52.758;6.872;2022-12-18T09:05:08;-4.10;1.00
37530;DHT22;23374;52.758;6.872;2022-12-18T09:07:29;-4.10;1.00
37530;DHT22;23374;52.758;6.872;2022-12-18T09:09:49;-4.00;1.00
37530;DHT22;23374;52.758;6.872;2022-12-18T09:12:09;-4.00;1.00
37530;DHT22;23374;52.758;6.872;2022-12-18T09:14:30;-3.90;1.00
37530;DHT22;23374;52.758;6.872;2022-12-18T09:16:51;-3.80;1.00
37530;DHT22;23374;52.758;6.872;2022-12-18T09:19:11;-3.80;1.00
37530;DHT22;23374;52.758;6.872;2022-12-18T09:21:34;-3.70;1.00
37530;DHT22;23374;52.758;6.872;2022-12-18T09:23:55;-3.60;1.00
37530;DHT22;23374;52.758;6.872;2022-12-18T09:26:16;-3.60;1.00
37530;DHT22;23374;52.758;6.872;2022-12-18T09:28:37;-3.50;1.00
37530;DHT22;23374;52.758;6.872;2022-12-18T09:30:58;-3.50;1.00
37530;DHT22;23374;52.758;6.872;2022-12-18T09:33:18;-3.50;99.90
37530;DHT22;23374;52.758;6.872;2022-12-18T09:35:40;-3.40;99.90
37530;DHT22;23374;52.758;6.872;2022-12-18T09:38:01;-3.40;1.00
37530;DHT22;23374;52.758;6.872;2022-12-18T09:40:28;-3.30;1.00
37530;DHT22;23374;52.758;6.872;2022-12-18T09:42:59;-3.30;1.00
37530;DHT22;23374;52.758;6.872;2022-12-18T09:45:21;-3.30;1.00
37530;DHT22;23374;52.758;6.872;2022-12-18T09:47:43;-3.20;1.00
37530;DHT22;23374;52.758;6.872;2022-12-18T09:50:23;-3.20;99.90
37530;DHT22;23374;52.758;6.872;2022-12-18T09:52:49;-3.20;99.90
37530;DHT22;23374;52.758;6.872;2022-12-18T09:55:55;-3.20;99.90
37530;DHT22;23374;52.758;6.872;2022-12-18T10:00:19;-3.10;99.90
37530;DHT22;23374;52.758;6.872;2022-12-18T10:02:41;-3.00;99.90
37530;DHT22;23374;52.758;6.872;2022-12-18T10:05:12;-3.00;99.90
37530;DHT22;23374;52.758;6.872;2022-12-18T10:08:04;-3.00;99.90
37530;DHT22;23374;52.758;6.872;2022-12-18T10:10:47;-2.90;99.90
37530;DHT22;23374;52.758;6.872;2022-12-18T10:16:13;-2.80;1.00
37530;DHT22;23374;52.758;6.872;2022-12-18T10:22:11;-2.70;99.90
37530;DHT22;23374;52.758;6.872;2022-12-18T10:26:08;-2.70;99.90
37530;DHT22;23374;52.758;6.872;2022-12-18T10:28:31;-2.60;99.90
37530;DHT22;23374;52.758;6.872;2022-12-18T10:30:52;-2.60;99.90
37530;DHT22;23374;52.758;6.872;2022-12-18T10:33:16;-2.50;99.90
37530;DHT22;23374;52.758;6.872;2022-12-18T10:35:40;-2.50;99.90
37530;DHT22;23374;52.758;6.872;2022-12-18T10:38:21;-2.50;99.90
37530;DHT22;23374;52.758;6.872;2022-12-18T10:42:16;-2.50;99.90
37530;DHT22;23374;52.758;6.872;2022-12-18T10:44:36;-2.50;99.90
37530;DHT22;23374;52.758;6.872;2022-12-18T10:47:06;-2.50;99.90
37530;DHT22;23374;52.758;6.872;2022-12-18T10:49:33;-2.50;99.90
37530;DHT22;23374;52.758;6.872;2022-12-18T10:52:15;-2.40;99.90
37530;DHT22;23374;52.758;6.872;2022-12-18T10:54:37;-2.40;99.90
37530;DHT22;23374;52.758;6.872;2022-12-18T10:57:35;-2.40;99.90
37530;DHT22;23374;52.758;6.872;2022-12-18T11:00:18;-2.30;99.90
37530;DHT22;23374;52.758;6.872;2022-12-18T11:02:40;-2.30;99.90
37530;DHT22;23374;52.758;6.872;2022-12-18T11:05:00;-2.30;99.90
37530;DHT22;23374;52.758;6.872;2022-12-18T11:07:20;-2.20;99.90
37530;DHT22;23374;52.758;6.872;2022-12-18T11:09:41;-2.10;99.90
37530;DHT22;23374;52.758;6.872;2022-12-18T11:12:23;-2.10;1.00
37530;DHT22;23374;52.758;6.872;2022-12-18T11:14:52;-2.00;1.00
37530;DHT22;23374;52.758;6.872;2022-12-18T11:17:39;-2.00;1.00
37530;DHT22;23374;52.758;6.872;2022-12-18T11:20:03;-2.00;99.90
37530;DHT22;23374;52.758;6.872;2022-12-18T11:22:28;-2.00;99.90
37530;DHT22;23374;52.758;6.872;2022-12-18T11:28:05;-1.90;99.90
37530;DHT22;23374;52.758;6.872;2022-12-18T11:30:35;-1.90;99.90
37530;DHT22;23374;52.758;6.872;2022-12-18T11:33:40;-1.90;99.90
37530;DHT22;23374;52.758;6.872;2022-12-18T11:36:03;-1.90;99.90
37530;DHT22;23374;52.758;6.872;2022-12-18T11:38:42;-1.90;99.90
37530;DHT22;23374;52.758;6.872;2022-12-18T11:43:52;-1.80;99.90
37530;DHT22;23374;52.758;6.872;2022-12-18T11:46:47;-1.70;99.90
37530;DHT22;23374;52.758;6.872;2022-12-18T11:49:15;-1.80;99.90
37530;DHT22;23374;52.758;6.872;2022-12-18T11:53:12;-1.70;99.90
37530;DHT22;23374;52.758;6.872;2022-12-18T11:56:02;-1.70;99.90
37530;DHT22;23374;52.758;6.872;2022-12-18T12:06:55;-1.60;99.90
37530;DHT22;23374;52.758;6.872;2022-12-18T12:13:02;-1.50;99.90
37530;DHT22;23374;52.758;6.872;2022-12-18T12:16:25;-1.50;99.90
37530;DHT22;23374;52.758;6.872;2022-12-18T12:20:04;-1.40;99.90
37530;DHT22;23374;52.758;6.872;2022-12-18T12:30:38;-1.30;99.90
37530;DHT22;23374;52.758;6.872;2022-12-18T12:41:06;-1.30;99.90
37530;DHT22;23374;52.758;6.872;2022-12-18T12:46:11;-1.30;86.80
37530;DHT22;23374;52.758;6.872;2022-12-18T12:48:58;-1.30;98.70
37530;DHT22;23374;52.758;6.872;2022-12-18T12:51:37;-1.30;99.90
37530;DHT22;23374;52.758;6.872;2022-12-18T12:53:59;-1.20;99.90
37530;DHT22;23374;52.758;6.872;2022-12-18T12:56:22;-1.20;99.90
37530;DHT22;23374;52.758;6.872;2022-12-18T13:00:19;-1.20;99.90
37530;DHT22;23374;52.758;6.872;2022-12-18T13:07:48;-1.10;99.90
37530;DHT22;23374;52.758;6.872;2022-12-18T13:10:54;-1.10;99.90
37530;DHT22;23374;52.758;6.872;2022-12-18T13:18:37;-1.10;99.90
37530;DHT22;23374;52.758;6.872;2022-12-18T13:21:14;-1.10;99.90
37530;DHT22;23374;52.758;6.872;2022-12-18T13:23:38;-1.10;99.90
37530;DHT22;23374;52.758;6.872;2022-12-18T13:26:59;-1.10;99.90
37530;DHT22;23374;52.758;6.872;2022-12-18T13:29:43;-1.10;99.90
37530;DHT22;23374;52.758;6.872;2022-12-18T13:32:33;-1.10;99.90
37530;DHT22;23374;52.758;6.872;2022-12-18T13:36:27;-1.10;99.90
37530;DHT22;23374;52.758;6.872;2022-12-18T13:39:22;-1.10;72.80
37530;DHT22;23374;52.758;6.872;2022-12-18T13:42:34;-1.10;88.00
37530;DHT22;23374;52.758;6.872;2022-12-18T13:45:46;-1.10;90.60
37530;DHT22;23374;52.758;6.872;2022-12-18T13:48:24;-1.00;84.30
37530;DHT22;23374;52.758;6.872;2022-12-18T13:50:59;-1.00;99.90
37530;DHT22;23374;52.758;6.872;2022-12-18T13:53:35;-1.00;99.90
37530;DHT22;23374;52.758;6.872;2022-12-18T13:55:57;-1.00;99.90
37530;DHT22;23374;52.758;6.872;2022-12-18T13:58:18;-1.00;99.90
37530;DHT22;23374;52.758;6.872;2022-12-18T14:00:42;-1.00;99.90
37530;DHT22;23374;52.758;6.872;2022-12-18T14:03:19;-1.00;99.90
37530;DHT22;23374;52.758;6.872;2022-12-18T14:05:40;-1.00;99.90
37530;DHT22;23374;52.758;6.872;2022-12-18T14:08:14;-1.00;99.90
37530;DHT22;23374;52.758;6.872;2022-12-18T14:10:35;-1.10;99.90
37530;DHT22;23374;52.758;6.872;2022-12-18T14:13:06;-1.00;99.90
37530;DHT22;23374;52.758;6.872;2022-12-18T14:15:35;-1.10;99.90
37530;DHT22;23374;52.758;6.872;2022-12-18T14:19:05;-1.10;99.90
37530;DHT22;23374;52.758;6.872;2022-12-18T14:21:29;-1.10;99.90
37530;DHT22;23374;52.758;6.872;2022-12-18T14:24:17;-1.10;99.90
37530;DHT22;23374;52.758;6.872;2022-12-18T14:26:37;-1.20;99.90
37530;DHT22;23374;52.758;6.872;2022-12-18T14:29:17;-1.20;99.90
37530;DHT22;23374;52.758;6.872;2022-12-18T14:31:38;-1.20;99.90
37530;DHT22;23374;52.758;6.872;2022-12-18T14:33:58;-1.20;99.90
37530;DHT22;23374;52.758;6.872;2022-12-18T14:36:28;-1.20;99.90
37530;DHT22;23374;52.758;6.872;2022-12-18T14:38:54;-1.20;99.90
37530;DHT22;23374;52.758;6.872;2022-12-18T14:41:18;-1.20;99.90
37530;DHT22;23374;52.758;6.872;2022-12-18T14:43:42;-1.20;99.90
37530;DHT22;23374;52.758;6.872;2022-12-18T14:46:34;-1.20;99.90
37530;DHT22;23374;52.758;6.872;2022-12-18T14:48:56;-1.20;99.90
37530;DHT22;23374;52.758;6.872;2022-12-18T14:51:25;-1.20;99.90
37530;DHT22;23374;52.758;6.872;2022-12-18T14:54:00;-1.20;99.90
37530;DHT22;23374;52.758;6.872;2022-12-18T14:56:27;-1.20;99.90
37530;DHT22;23374;52.758;6.872;2022-12-18T14:59:04;-1.20;99.90
37530;DHT22;23374;52.758;6.872;2022-12-18T15:05:31;-1.20;99.90
37530;DHT22;23374;52.758;6.872;2022-12-18T15:07:54;-1.20;99.90
37530;DHT22;23374;52.758;6.872;2022-12-18T15:10:33;-1.20;99.90
37530;DHT22;23374;52.758;6.872;2022-12-18T15:13:22;-1.20;99.90
37530;DHT22;23374;52.758;6.872;2022-12-18T15:15:45;-1.20;99.90
37530;DHT22;23374;52.758;6.872;2022-12-18T15:18:40;-1.20;99.90
37530;DHT22;23374;52.758;6.872;2022-12-18T15:21:09;-1.20;99.90
37530;DHT22;23374;52.758;6.872;2022-12-18T15:23:52;-1.20;99.90
37530;DHT22;23374;52.758;6.872;2022-12-18T15:26:16;-1.20;99.90
37530;DHT22;23374;52.758;6.872;2022-12-18T15:31:32;-1.20;99.90
37530;DHT22;23374;52.758;6.872;2022-12-18T15:34:20;-1.20;99.90
37530;DHT22;23374;52.758;6.872;2022-12-18T15:36:41;-1.20;99.90
37530;DHT22;23374;52.758;6.872;2022-12-18T15:39:03;-1.20;99.90
37530;DHT22;23374;52.758;6.872;2022-12-18T15:41:24;-1.10;99.90
37530;DHT22;23374;52.758;6.872;2022-12-18T15:43:47;-1.10;99.90
37530;DHT22;23374;52.758;6.872;2022-12-18T15:46:19;-1.10;99.90
37530;DHT22;23374;52.758;6.872;2022-12-18T15:48:46;-1.10;99.90
37530;DHT22;23374;52.758;6.872;2022-12-18T15:51:31;-1.20;99.90
37530;DHT22;23374;52.758;6.872;2022-12-18T15:53:56;-1.20;99.90
37530;DHT22;23374;52.758;6.872;2022-12-18T15:56:19;-1.20;99.90
37530;DHT22;23374;52.758;6.872;2022-12-18T15:58:59;-1.20;99.90
37530;DHT22;23374;52.758;6.872;2022-12-18T16:01:21;-1.20;99.90
37530;DHT22;23374;52.758;6.872;2022-12-18T16:03:42;-1.20;99.90
37530;DHT22;23374;52.758;6.872;2022-12-18T16:06:03;-1.20;99.90
37530;DHT22;23374;52.758;6.872;2022-12-18T16:08:24;-1.20;99.90
37530;DHT22;23374;52.758;6.872;2022-12-18T16:10:44;-1.20;1.00
37530;DHT22;23374;52.758;6.872;2022-12-18T16:13:09;-1.10;1.00
37530;DHT22;23374;52.758;6.872;2022-12-18T16:15:30;-1.10;99.90
37530;DHT22;23374;52.758;6.872;2022-12-18T16:17:51;-1.10;1.00
37530;DHT22;23374;52.758;6.872;2022-12-18T16:20:24;-1.10;99.90
37530;DHT22;23374;52.758;6.872;2022-12-18T16:22:45;-1.10;99.90
37530;DHT22;23374;52.758;6.872;2022-12-18T16:25:19;-1.10;1.00
37530;DHT22;23374;52.758;6.872;2022-12-18T16:27:41;-1.10;99.90
37530;DHT22;23374;52.758;6.872;2022-12-18T16:30:04;-1.10;99.90
37530;DHT22;23374;52.758;6.872;2022-12-18T16:32:24;-1.10;99.90
37530;DHT22;23374;52.758;6.872;2022-12-18T16:34:45;-1.10;99.90
37530;DHT22;23374;52.758;6.872;2022-12-18T16:37:08;-1.00;1.00
37530;DHT22;23374;52.758;6.872;2022-12-18T16:39:29;-1.00;99.90
37530;DHT22;23374;52.758;6.872;2022-12-18T16:41:50;-1.00;1.00
37530;DHT22;23374;52.758;6.872;2022-12-18T16:44:11;-1.00;99.90
37530;DHT22;23374;52.758;6.872;2022-12-18T16:46:32;-1.00;99.90
37530;DHT22;23374;52.758;6.872;2022-12-18T16:48:52;-1.00;99.90
37530;DHT22;23374;52.758;6.872;2022-12-18T16:51:13;-1.00;99.90
37530;DHT22;23374;52.758;6.872;2022-12-18T16:53:35;-1.00;99.90
37530;DHT22;23374;52.758;6.872;2022-12-18T16:55:56;-1.00;99.90
37530;DHT22;23374;52.758;6.872;2022-12-18T16:58:16;-1.00;99.90
37530;DHT22;23374;52.758;6.872;2022-12-18T17:00:38;-1.00;99.90
37530;DHT22;23374;52.758;6.872;2022-12-18T17:03:00;-0.90;99.90